sensor_id;sensor_type;location;lat;lon;timestamp;temperature;humidity
22925;DHT22;11628;51.072;3.712;2022-11-15T00:00:49;11.00;99.90
22925;DHT22;11628;51.072;3.712;2022-11-15T00:03:20;11.00;99.90
22925;DHT22;11628;51.072;3.712;2022-11-15T00:05:46;11.00;99.90
22925;DHT22;11628;51.072;3.712;2022-11-15T00:08:12;11.10;99.90
22925;DHT22;11628;51.072;3.712;2022-11-15T00:10:38;11.10;99.90
22925;DHT22;11628;51.072;3.712;2022-11-15T00:13:09;11.10;99.90
22925;DHT22;11628;51.072;3.712;2022-11-15T00:15:39;11.10;99.90
22925;DHT22;11628;51.072;3.712;2022-11-15T00:18:06;11.20;99.90
22925;DHT22;11628;51.072;3.712;2022-11-15T00:20:33;11.20;99.90
22925;DHT22;11628;51.072;3.712;2022-11-15T00:22:59;11.20;99.90
22925;DHT22;11628;51.072;3.712;2022-11-15T00:25:25;11.20;99.90
22925;DHT22;11628;51.072;3.712;2022-11-15T00:27:55;11.20;99.90
22925;DHT22;11628;51.072;3.712;2022-11-15T00:30:22;11.30;99.90
22925;DHT22;11628;51.072;3.712;2022-11-15T00:32:47;11.30;99.90
22925;DHT22;11628;51.072;3.712;2022-11-15T00:35:13;11.30;99.90
22925;DHT22;11628;51.072;3.712;2022-11-15T00:37:39;11.30;99.90
22925;DHT22;11628;51.072;3.712;2022-11-15T00:40:05;11.30;99.90
22925;DHT22;11628;51.072;3.712;2022-11-15T00:42:31;11.30;99.90
22925;DHT22;11628;51.072;3.712;2022-11-15T00:44:56;11.30;99.90
22925;DHT22;11628;51.072;3.712;2022-11-15T00:47:22;11.30;99.90
22925;DHT22;11628;51.072;3.712;2022-11-15T00:49:48;11.20;99.90
22925;DHT22;11628;51.072;3.712;2022-11-15T00:52:13;11.20;99.90
22925;DHT22;11628;51.072;3.712;2022-11-15T00:54:39;11.30;99.90
22925;DHT22;11628;51.072;3.712;2022-11-15T00:57:05;11.30;99.90
22925;DHT22;11628;51.072;3.712;2022-11-15T00:59:31;11.30;99.90
22925;DHT22;11628;51.072;3.712;2022-11-15T01:02:00;11.20;99.90
22925;DHT22;11628;51.072;3.712;2022-11-15T01:04:26;11.30;99.90
22925;DHT22;11628;51.072;3.712;2022-11-15T01:06:52;11.30;99.90
22925;DHT22;11628;51.072;3.712;2022-11-15T01:09:18;11.30;99.90
22925;DHT22;11628;51.072;3.712;2022-11-15T01:11:44;11.30;99.90
22925;DHT22;11628;51.072;3.712;2022-11-15T01:14:10;11.30;99.90
22925;DHT22;11628;51.072;3.712;2022-11-15T01:16:35;11.30;99.90
22925;DHT22;11628;51.072;3.712;2022-11-15T01:19:01;11.30;99.90
22925;DHT22;11628;51.072;3.712;2022-11-15T01:21:27;11.30;99.90
22925;DHT22;11628;51.072;3.712;2022-11-15T01:23:56;11.30;99.90
22925;DHT22;11628;51.072;3.712;2022-11-15T01:26:23;11.30;99.90
22925;DHT22;11628;51.072;3.712;2022-11-15T01:28:50;11.30;99.90
22925;DHT22;11628;51.072;3.712;2022-11-15T01:31:19;11.30;99.90
22925;DHT22;11628;51.072;3.712;2022-11-15T01:33:45;11.30;99.90
22925;DHT22;11628;51.072;3.712;2022-11-15T01:36:17;11.30;99.90
22925;DHT22;11628;51.072;3.712;2022-11-15T01:38:44;11.30;99.90
22925;DHT22;11628;51.072;3.712;2022-11-15T01:41:25;11.30;99.90
22925;DHT22;11628;51.072;3.712;2022-11-15T01:46:56;11.40;99.90
22925;DHT22;11628;51.072;3.712;2022-11-15T01:49:24;11.40;99.90
22925;DHT22;11628;51.072;3.712;2022-11-15T01:51:51;11.40;99.90
22925;DHT22;11628;51.072;3.712;2022-11-15T01:54:20;11.30;99.90
22925;DHT22;11628;51.072;3.712;2022-11-15T01:56:51;11.30;99.90
22925;DHT22;11628;51.072;3.712;2022-11-15T01:59:18;11.30;99.90
22925;DHT22;11628;51.072;3.712;2022-11-15T02:01:44;11.30;99.90
22925;DHT22;11628;51.072;3.712;2022-11-15T02:04:21;11.30;99.90
22925;DHT22;11628;51.072;3.712;2022-11-15T02:06:49;11.30;99.90
22925;DHT22;11628;51.072;3.712;2022-11-15T02:09:15;11.30;99.90
22925;DHT22;11628;51.072;3.712;2022-11-15T02:11:42;11.30;99.90
22925;DHT22;11628;51.072;3.712;2022-11-15T02:14:09;11.20;99.90
22925;DHT22;11628;51.072;3.712;2022-11-15T02:33:08;11.30;99.90
22925;DHT22;11628;51.072;3.712;2022-11-15T02:36:02;11.30;99.90
22925;DHT22;11628;51.072;3.712;2022-11-15T02:38:40;11.30;99.90
22925;DHT22;11628;51.072;3.712;2022-11-15T02:41:15;11.30;99.90
22925;DHT22;11628;51.072;3.712;2022-11-15T02:43:46;11.30;99.90
22925;DHT22;11628;51.072;3.712;2022-11-15T02:49:29;11.30;99.90
22925;DHT22;11628;51.072;3.712;2022-11-15T02:51:56;11.30;99.90
22925;DHT22;11628;51.072;3.712;2022-11-15T02:54:24;11.30;99.90
22925;DHT22;11628;51.072;3.712;2022-11-15T02:56:53;11.30;99.90
22925;DHT22;11628;51.072;3.712;2022-11-15T02:59:47;11.30;99.90
22925;DHT22;11628;51.072;3.712;2022-11-15T03:07:54;11.20;99.90
22925;DHT22;11628;51.072;3.712;2022-11-15T03:13:35;11.20;99.90
22925;DHT22;11628;51.072;3.712;2022-11-15T03:16:17;11.20;99.90
22925;DHT22;11628;51.072;3.712;2022-11-15T03:18:57;11.20;99.90
22925;DHT22;11628;51.072;3.712;2022-11-15T03:21:25;11.20;99.90
22925;DHT22;11628;51.072;3.712;2022-11-15T03:23:54;11.20;99.90
22925;DHT22;11628;51.072;3.712;2022-11-15T03:26:22;11.20;99.90
22925;DHT22;11628;51.072;3.712;2022-11-15T03:28:53;11.20;99.90
22925;DHT22;11628;51.072;3.712;2022-11-15T03:31:21;11.20;99.90
22925;DHT22;11628;51.072;3.712;2022-11-15T03:34:09;11.10;99.90
22925;DHT22;11628;51.072;3.712;2022-11-15T03:36:37;11.10;99.90
22925;DHT22;11628;51.072;3.712;2022-11-15T03:39:07;11.10;99.90
22925;DHT22;11628;51.072;3.712;2022-11-15T03:46:50;11.00;99.90
22925;DHT22;11628;51.072;3.712;2022-11-15T03:49:29;10.90;99.90
22925;DHT22;11628;51.072;3.712;2022-11-15T03:51:57;10.90;99.90
22925;DHT22;11628;51.072;3.712;2022-11-15T03:54:23;10.90;99.90
22925;DHT22;11628;51.072;3.712;2022-11-15T03:56:49;10.90;99.90
22925;DHT22;11628;51.072;3.712;2022-11-15T03:59:15;10.90;99.90
22925;DHT22;11628;51.072;3.712;2022-11-15T04:01:41;10.80;99.90
22925;DHT22;11628;51.072;3.712;2022-11-15T04:04:06;10.90;99.90
22925;DHT22;11628;51.072;3.712;2022-11-15T04:06:32;10.80;99.90
22925;DHT22;11628;51.072;3.712;2022-11-15T04:08:58;10.90;99.90
22925;DHT22;11628;51.072;3.712;2022-11-15T04:11:23;10.90;99.90
22925;DHT22;11628;51.072;3.712;2022-11-15T04:13:49;10.90;99.90
22925;DHT22;11628;51.072;3.712;2022-11-15T04:16:15;10.80;99.90
22925;DHT22;11628;51.072;3.712;2022-11-15T04:18:40;10.80;99.90
22925;DHT22;11628;51.072;3.712;2022-11-15T04:21:08;10.70;99.90
22925;DHT22;11628;51.072;3.712;2022-11-15T04:23:52;10.60;99.90
22925;DHT22;11628;51.072;3.712;2022-11-15T04:26:30;10.60;99.90
22925;DHT22;11628;51.072;3.712;2022-11-15T04:28:56;10.60;99.90
22925;DHT22;11628;51.072;3.712;2022-11-15T04:31:40;10.60;99.90
22925;DHT22;11628;51.072;3.712;2022-11-15T04:34:05;10.50;99.90
22925;DHT22;11628;51.072;3.712;2022-11-15T04:36:31;10.50;99.90
22925;DHT22;11628;51.072;3.712;2022-11-15T04:39:15;10.50;99.90
22925;DHT22;11628;51.072;3.712;2022-11-15T04:41:41;10.40;99.90
22925;DHT22;11628;51.072;3.712;2022-11-15T04:44:06;10.40;99.90
22925;DHT22;11628;51.072;3.712;2022-11-15T04:46:32;10.40;99.90
22925;DHT22;11628;51.072;3.712;2022-11-15T04:48:58;10.30;99.90
22925;DHT22;11628;51.072;3.712;2022-11-15T04:51:23;10.30;99.90
22925;DHT22;11628;51.072;3.712;2022-11-15T04:53:49;10.30;99.90
22925;DHT22;11628;51.072;3.712;2022-11-15T04:56:15;10.20;99.90
22925;DHT22;11628;51.072;3.712;2022-11-15T04:58:40;10.20;99.90
22925;DHT22;11628;51.072;3.712;2022-11-15T05:01:11;10.20;99.90
22925;DHT22;11628;51.072;3.712;2022-11-15T05:03:37;10.20;99.90
22925;DHT22;11628;51.072;3.712;2022-11-15T05:06:22;10.10;99.90
22925;DHT22;11628;51.072;3.712;2022-11-15T05:08:47;10.10;99.90
22925;DHT22;11628;51.072;3.712;2022-11-15T05:11:13;10.10;99.90
22925;DHT22;11628;51.072;3.712;2022-11-15T05:13:39;10.10;99.90
22925;DHT22;11628;51.072;3.712;2022-11-15T05:16:05;10.00;99.90
22925;DHT22;11628;51.072;3.712;2022-11-15T05:18:30;10.10;99.90
22925;DHT22;11628;51.072;3.712;2022-11-15T05:20:56;10.00;99.90
22925;DHT22;11628;51.072;3.712;2022-11-15T05:23:27;10.00;99.90
22925;DHT22;11628;51.072;3.712;2022-11-15T05:25:53;10.00;99.90
22925;DHT22;11628;51.072;3.712;2022-11-15T05:28:19;10.00;99.90
22925;DHT22;11628;51.072;3.712;2022-11-15T05:30:44;9.90;99.90
22925;DHT22;11628;51.072;3.712;2022-11-15T05:33:10;9.90;99.90
22925;DHT22;11628;51.072;3.712;2022-11-15T05:35:41;9.90;99.90
22925;DHT22;11628;51.072;3.712;2022-11-15T05:38:10;9.90;99.90
22925;DHT22;11628;51.072;3.712;2022-11-15T05:40:36;9.80;99.90
22925;DHT22;11628;51.072;3.712;2022-11-15T05:43:03;9.80;99.90
22925;DHT22;11628;51.072;3.712;2022-11-15T05:45:31;9.80;99.90
22925;DHT22;11628;51.072;3.712;2022-11-15T05:47:58;9.80;99.90
22925;DHT22;11628;51.072;3.712;2022-11-15T05:50:25;9.80;99.90
22925;DHT22;11628;51.072;3.712;2022-11-15T05:52:51;9.80;99.90
22925;DHT22;11628;51.072;3.712;2022-11-15T05:55:17;9.70;99.90
22925;DHT22;11628;51.072;3.712;2022-11-15T05:57:44;9.70;99.90
22925;DHT22;11628;51.072;3.712;2022-11-15T06:00:10;9.70;99.90
22925;DHT22;11628;51.072;3.712;2022-11-15T06:02:36;9.70;99.90
22925;DHT22;11628;51.072;3.712;2022-11-15T06:05:02;9.70;99.90
22925;DHT22;11628;51.072;3.712;2022-11-15T06:07:29;9.60;99.90
22925;DHT22;11628;51.072;3.712;2022-11-15T06:09:55;9.60;99.90
22925;DHT22;11628;51.072;3.712;2022-11-15T06:12:22;9.60;99.90
22925;DHT22;11628;51.072;3.712;2022-11-15T06:14:47;9.60;99.90
22925;DHT22;11628;51.072;3.712;2022-11-15T06:17:13;9.50;99.90
22925;DHT22;11628;51.072;3.712;2022-11-15T06:19:39;9.50;99.90
22925;DHT22;11628;51.072;3.712;2022-11-15T06:22:04;9.50;99.90
22925;DHT22;11628;51.072;3.712;2022-11-15T06:24:30;9.50;99.90
22925;DHT22;11628;51.072;3.712;2022-11-15T06:26:56;9.50;99.90
22925;DHT22;11628;51.072;3.712;2022-11-15T06:29:23;9.40;99.90
22925;DHT22;11628;51.072;3.712;2022-11-15T06:31:48;9.40;99.90
22925;DHT22;11628;51.072;3.712;2022-11-15T06:34:14;9.40;99.90
22925;DHT22;11628;51.072;3.712;2022-11-15T06:36:40;9.40;99.90
22925;DHT22;11628;51.072;3.712;2022-11-15T06:39:06;9.40;99.90
22925;DHT22;11628;51.072;3.712;2022-11-15T06:41:34;9.40;99.90
22925;DHT22;11628;51.072;3.712;2022-11-15T06:44:01;9.40;99.90
22925;DHT22;11628;51.072;3.712;2022-11-15T06:46:27;9.40;99.90
22925;DHT22;11628;51.072;3.712;2022-11-15T06:48:53;9.40;99.90
22925;DHT22;11628;51.072;3.712;2022-11-15T06:51:18;9.40;99.90
22925;DHT22;11628;51.072;3.712;2022-11-15T06:53:44;9.40;99.90
22925;DHT22;11628;51.072;3.712;2022-11-15T06:56:10;9.40;99.90
22925;DHT22;11628;51.072;3.712;2022-11-15T06:58:36;9.40;99.90
22925;DHT22;11628;51.072;3.712;2022-11-15T07:01:08;9.50;99.90
22925;DHT22;11628;51.072;3.712;2022-11-15T07:03:38;9.40;99.90
22925;DHT22;11628;51.072;3.712;2022-11-15T07:06:07;9.40;99.90
22925;DHT22;11628;51.072;3.712;2022-11-15T07:08:33;9.40;99.90
22925;DHT22;11628;51.072;3.712;2022-11-15T07:11:01;9.40;99.90
22925;DHT22;11628;51.072;3.712;2022-11-15T07:13:28;9.40;99.90
22925;DHT22;11628;51.072;3.712;2022-11-15T07:15:54;9.40;99.90
22925;DHT22;11628;51.072;3.712;2022-11-15T07:18:20;9.50;99.90
22925;DHT22;11628;51.072;3.712;2022-11-15T07:20:45;9.50;99.90
22925;DHT22;11628;51.072;3.712;2022-11-15T07:23:11;9.60;99.90
22925;DHT22;11628;51.072;3.712;2022-11-15T07:25:37;9.70;99.90
22925;DHT22;11628;51.072;3.712;2022-11-15T07:28:03;9.80;99.90
22925;DHT22;11628;51.072;3.712;2022-11-15T07:30:29;9.90;99.90
22925;DHT22;11628;51.072;3.712;2022-11-15T07:32:56;10.00;99.90
22925;DHT22;11628;51.072;3.712;2022-11-15T07:35:22;10.10;99.90
22925;DHT22;11628;51.072;3.712;2022-11-15T07:38:01;10.20;99.90
22925;DHT22;11628;51.072;3.712;2022-11-15T07:40:29;10.30;99.90
22925;DHT22;11628;51.072;3.712;2022-11-15T07:43:02;10.30;99.90
22925;DHT22;11628;51.072;3.712;2022-11-15T07:45:28;10.50;99.90
22925;DHT22;11628;51.072;3.712;2022-11-15T07:47:55;10.50;99.90
22925;DHT22;11628;51.072;3.712;2022-11-15T07:50:23;10.70;99.90
22925;DHT22;11628;51.072;3.712;2022-11-15T07:52:53;11.10;99.90
22925;DHT22;11628;51.072;3.712;2022-11-15T07:55:19;11.00;99.90
22925;DHT22;11628;51.072;3.712;2022-11-15T07:57:45;10.90;99.90
22925;DHT22;11628;51.072;3.712;2022-11-15T08:00:11;10.90;99.90
22925;DHT22;11628;51.072;3.712;2022-11-15T08:02:37;11.00;99.90
22925;DHT22;11628;51.072;3.712;2022-11-15T08:05:03;11.20;99.90
22925;DHT22;11628;51.072;3.712;2022-11-15T08:07:31;11.40;99.90
22925;DHT22;11628;51.072;3.712;2022-11-15T08:09:57;11.60;99.90
22925;DHT22;11628;51.072;3.712;2022-11-15T08:12:23;11.50;99.90
22925;DHT22;11628;51.072;3.712;2022-11-15T08:14:49;11.70;99.90
22925;DHT22;11628;51.072;3.712;2022-11-15T08:17:15;12.10;99.90
22925;DHT22;11628;51.072;3.712;2022-11-15T08:19:40;12.60;99.90
22925;DHT22;11628;51.072;3.712;2022-11-15T08:22:07;13.40;99.90
22925;DHT22;11628;51.072;3.712;2022-11-15T08:24:32;14.10;99.90
22925;DHT22;11628;51.072;3.712;2022-11-15T08:26:59;14.30;99.90
22925;DHT22;11628;51.072;3.712;2022-11-15T08:29:25;14.00;99.90
22925;DHT22;11628;51.072;3.712;2022-11-15T08:31:54;14.40;99.90
22925;DHT22;11628;51.072;3.712;2022-11-15T08:34:20;14.00;99.90
22925;DHT22;11628;51.072;3.712;2022-11-15T08:36:46;13.70;99.90
22925;DHT22;11628;51.072;3.712;2022-11-15T08:39:11;13.70;99.90
22925;DHT22;11628;51.072;3.712;2022-11-15T08:41:39;14.20;99.90
22925;DHT22;11628;51.072;3.712;2022-11-15T08:44:05;14.20;99.90
22925;DHT22;11628;51.072;3.712;2022-11-15T08:46:30;13.40;99.90
22925;DHT22;11628;51.072;3.712;2022-11-15T08:48:56;13.10;99.90
22925;DHT22;11628;51.072;3.712;2022-11-15T08:51:23;13.40;99.90
22925;DHT22;11628;51.072;3.712;2022-11-15T08:53:49;13.90;99.90
22925;DHT22;11628;51.072;3.712;2022-11-15T08:56:15;14.90;99.90
22925;DHT22;11628;51.072;3.712;2022-11-15T08:58:41;15.70;99.90
22925;DHT22;11628;51.072;3.712;2022-11-15T09:01:15;16.20;99.90
22925;DHT22;11628;51.072;3.712;2022-11-15T09:03:41;16.20;99.90
22925;DHT22;11628;51.072;3.712;2022-11-15T09:06:08;16.00;99.90
22925;DHT22;11628;51.072;3.712;2022-11-15T09:08:34;16.30;99.90
22925;DHT22;11628;51.072;3.712;2022-11-15T09:11:06;15.80;99.90
22925;DHT22;11628;51.072;3.712;2022-11-15T09:13:32;16.20;99.90
22925;DHT22;11628;51.072;3.712;2022-11-15T09:16:01;17.00;99.90
22925;DHT22;11628;51.072;3.712;2022-11-15T09:18:27;17.40;99.90
22925;DHT22;11628;51.072;3.712;2022-11-15T09:20:59;17.80;99.90
22925;DHT22;11628;51.072;3.712;2022-11-15T09:23:28;17.70;99.90
22925;DHT22;11628;51.072;3.712;2022-11-15T09:25:59;17.00;99.90
22925;DHT22;11628;51.072;3.712;2022-11-15T09:28:26;16.10;99.90
22925;DHT22;11628;51.072;3.712;2022-11-15T09:30:56;15.40;99.90
22925;DHT22;11628;51.072;3.712;2022-11-15T09:33:22;14.90;99.90
22925;DHT22;11628;51.072;3.712;2022-11-15T09:35:47;14.30;99.90
22925;DHT22;11628;51.072;3.712;2022-11-15T09:38:13;13.90;99.90
22925;DHT22;11628;51.072;3.712;2022-11-15T09:40:39;13.60;99.90
22925;DHT22;11628;51.072;3.712;2022-11-15T09:48:52;14.20;99.90
22925;DHT22;11628;51.072;3.712;2022-11-15T09:51:36;14.40;99.90
22925;DHT22;11628;51.072;3.712;2022-11-15T09:54:21;15.40;99.90
22925;DHT22;11628;51.072;3.712;2022-11-15T09:56:50;16.50;99.90
22925;DHT22;11628;51.072;3.712;2022-11-15T09:59:20;16.20;99.90
22925;DHT22;11628;51.072;3.712;2022-11-15T10:02:09;15.70;99.90
22925;DHT22;11628;51.072;3.712;2022-11-15T10:04:40;15.40;99.90
22925;DHT22;11628;51.072;3.712;2022-11-15T10:10:00;15.20;99.90
22925;DHT22;11628;51.072;3.712;2022-11-15T10:12:27;14.80;99.90
22925;DHT22;11628;51.072;3.712;2022-11-15T10:15:15;14.70;99.90
22925;DHT22;11628;51.072;3.712;2022-11-15T10:21:00;15.20;99.90
22925;DHT22;11628;51.072;3.712;2022-11-15T10:23:29;16.80;99.90
22925;DHT22;11628;51.072;3.712;2022-11-15T10:25:58;18.00;99.90
22925;DHT22;11628;51.072;3.712;2022-11-15T10:28:29;17.50;99.90
22925;DHT22;11628;51.072;3.712;2022-11-15T10:31:00;17.60;99.90
22925;DHT22;11628;51.072;3.712;2022-11-15T10:33:35;16.90;99.90
22925;DHT22;11628;51.072;3.712;2022-11-15T10:41:34;15.70;99.90
22925;DHT22;11628;51.072;3.712;2022-11-15T10:46:32;15.60;99.90
22925;DHT22;11628;51.072;3.712;2022-11-15T10:49:17;15.80;99.90
22925;DHT22;11628;51.072;3.712;2022-11-15T10:54:34;17.60;99.90
22925;DHT22;11628;51.072;3.712;2022-11-15T10:57:06;18.20;99.90
22925;DHT22;11628;51.072;3.712;2022-11-15T10:59:35;17.40;99.90
22925;DHT22;11628;51.072;3.712;2022-11-15T11:02:02;17.00;99.90
22925;DHT22;11628;51.072;3.712;2022-11-15T11:04:28;17.30;99.90
22925;DHT22;11628;51.072;3.712;2022-11-15T11:06:56;17.80;99.90
22925;DHT22;11628;51.072;3.712;2022-11-15T11:09:39;17.60;99.90
22925;DHT22;11628;51.072;3.712;2022-11-15T11:12:11;17.70;99.90
22925;DHT22;11628;51.072;3.712;2022-11-15T11:14:38;17.40;99.90
22925;DHT22;11628;51.072;3.712;2022-11-15T11:20:37;16.50;99.90
22925;DHT22;11628;51.072;3.712;2022-11-15T11:23:28;16.80;99.90
22925;DHT22;11628;51.072;3.712;2022-11-15T11:29:05;15.70;99.90
22925;DHT22;11628;51.072;3.712;2022-11-15T11:32:01;15.30;99.90
22925;DHT22;11628;51.072;3.712;2022-11-15T11:43:59;14.60;99.90
22925;DHT22;11628;51.072;3.712;2022-11-15T11:46:55;14.60;99.90
22925;DHT22;11628;51.072;3.712;2022-11-15T11:49:34;14.50;99.90
22925;DHT22;11628;51.072;3.712;2022-11-15T11:52:15;14.40;99.90
22925;DHT22;11628;51.072;3.712;2022-11-15T12:00:21;14.40;99.90
22925;DHT22;11628;51.072;3.712;2022-11-15T12:03:11;14.40;99.90
22925;DHT22;11628;51.072;3.712;2022-11-15T12:05:43;14.30;99.90
22925;DHT22;11628;51.072;3.712;2022-11-15T12:11:10;14.30;99.90
22925;DHT22;11628;51.072;3.712;2022-11-15T12:13:40;14.40;99.90
22925;DHT22;11628;51.072;3.712;2022-11-15T12:18:37;14.20;99.90
22925;DHT22;11628;51.072;3.712;2022-11-15T12:21:08;14.20;99.90
22925;DHT22;11628;51.072;3.712;2022-11-15T12:23:44;14.10;99.90
22925;DHT22;11628;51.072;3.712;2022-11-15T12:26:18;14.00;99.90
22925;DHT22;11628;51.072;3.712;2022-11-15T12:28:58;14.10;99.90
22925;DHT22;11628;51.072;3.712;2022-11-15T12:34:12;14.20;99.90
22925;DHT22;11628;51.072;3.712;2022-11-15T12:36:41;14.20;99.90
22925;DHT22;11628;51.072;3.712;2022-11-15T12:39:11;14.20;99.90
22925;DHT22;11628;51.072;3.712;2022-11-15T12:42:00;14.20;99.90
22925;DHT22;11628;51.072;3.712;2022-11-15T12:47:24;14.30;99.90
22925;DHT22;11628;51.072;3.712;2022-11-15T12:49:51;14.30;99.90
22925;DHT22;11628;51.072;3.712;2022-11-15T12:52:18;14.30;99.90
22925;DHT22;11628;51.072;3.712;2022-11-15T12:54:50;14.20;99.90
22925;DHT22;11628;51.072;3.712;2022-11-15T12:59:57;14.20;99.90
22925;DHT22;11628;51.072;3.712;2022-11-15T13:02:37;14.10;99.90
22925;DHT22;11628;51.072;3.712;2022-11-15T13:17:46;14.10;99.90
22925;DHT22;11628;51.072;3.712;2022-11-15T13:30:55;14.00;99.90
22925;DHT22;11628;51.072;3.712;2022-11-15T13:33:37;13.90;99.90
22925;DHT22;11628;51.072;3.712;2022-11-15T13:36:27;13.90;99.90
22925;DHT22;11628;51.072;3.712;2022-11-15T13:38:57;13.90;99.90
22925;DHT22;11628;51.072;3.712;2022-11-15T13:41:26;13.90;99.90
22925;DHT22;11628;51.072;3.712;2022-11-15T13:43:53;13.60;99.90
22925;DHT22;11628;51.072;3.712;2022-11-15T13:46:26;13.40;99.90
22925;DHT22;11628;51.072;3.712;2022-11-15T13:49:04;13.30;99.90
22925;DHT22;11628;51.072;3.712;2022-11-15T13:54:28;13.30;99.90
22925;DHT22;11628;51.072;3.712;2022-11-15T13:57:19;13.40;99.90
22925;DHT22;11628;51.072;3.712;2022-11-15T13:59:47;13.50;99.90
22925;DHT22;11628;51.072;3.712;2022-11-15T14:02:16;13.50;99.90
22925;DHT22;11628;51.072;3.712;2022-11-15T14:05:14;13.50;99.90
22925;DHT22;11628;51.072;3.712;2022-11-15T14:08:12;13.30;99.90
22925;DHT22;11628;51.072;3.712;2022-11-15T14:10:46;13.10;99.90
22925;DHT22;11628;51.072;3.712;2022-11-15T14:13:28;13.00;99.90
22925;DHT22;11628;51.072;3.712;2022-11-15T14:15:54;13.00;99.90
22925;DHT22;11628;51.072;3.712;2022-11-15T14:18:52;12.90;99.90
22925;DHT22;11628;51.072;3.712;2022-11-15T14:21:21;12.90;99.90
22925;DHT22;11628;51.072;3.712;2022-11-15T14:23:47;12.80;99.90
22925;DHT22;11628;51.072;3.712;2022-11-15T14:26:34;12.70;99.90
22925;DHT22;11628;51.072;3.712;2022-11-15T14:29:25;12.70;99.90
22925;DHT22;11628;51.072;3.712;2022-11-15T14:31:52;12.60;99.90
22925;DHT22;11628;51.072;3.712;2022-11-15T14:34:18;12.60;99.90
22925;DHT22;11628;51.072;3.712;2022-11-15T14:36:44;12.50;99.90
22925;DHT22;11628;51.072;3.712;2022-11-15T14:39:09;12.50;99.90
22925;DHT22;11628;51.072;3.712;2022-11-15T14:41:36;12.40;99.90
22925;DHT22;11628;51.072;3.712;2022-11-15T14:44:05;12.30;99.90
22925;DHT22;11628;51.072;3.712;2022-11-15T14:46:32;12.30;99.90
22925;DHT22;11628;51.072;3.712;2022-11-15T14:48:58;12.20;99.90
22925;DHT22;11628;51.072;3.712;2022-11-15T14:51:23;12.10;99.90
22925;DHT22;11628;51.072;3.712;2022-11-15T14:53:49;12.10;99.90
22925;DHT22;11628;51.072;3.712;2022-11-15T14:56:15;12.00;99.90
22925;DHT22;11628;51.072;3.712;2022-11-15T14:58:42;11.90;99.90
22925;DHT22;11628;51.072;3.712;2022-11-15T15:03:41;11.90;99.90
22925;DHT22;11628;51.072;3.712;2022-11-15T15:06:09;11.90;99.90
22925;DHT22;11628;51.072;3.712;2022-11-15T15:08:35;11.90;99.90
22925;DHT22;11628;51.072;3.712;2022-11-15T15:11:01;11.90;99.90
22925;DHT22;11628;51.072;3.712;2022-11-15T15:13:26;11.90;99.90
22925;DHT22;11628;51.072;3.712;2022-11-15T15:15:54;11.80;99.90
22925;DHT22;11628;51.072;3.712;2022-11-15T15:18:19;11.80;99.90
22925;DHT22;11628;51.072;3.712;2022-11-15T15:20:58;11.80;99.90
22925;DHT22;11628;51.072;3.712;2022-11-15T15:23:32;11.80;99.90
22925;DHT22;11628;51.072;3.712;2022-11-15T15:25:59;11.80;99.90
22925;DHT22;11628;51.072;3.712;2022-11-15T15:28:25;11.90;99.90
22925;DHT22;11628;51.072;3.712;2022-11-15T15:30:50;11.80;99.90
22925;DHT22;11628;51.072;3.712;2022-11-15T15:33:18;11.80;99.90
22925;DHT22;11628;51.072;3.712;2022-11-15T15:35:43;11.80;99.90
22925;DHT22;11628;51.072;3.712;2022-11-15T15:38:12;11.70;99.90
22925;DHT22;11628;51.072;3.712;2022-11-15T15:40:38;11.70;99.90
22925;DHT22;11628;51.072;3.712;2022-11-15T15:43:04;11.80;99.90
22925;DHT22;11628;51.072;3.712;2022-11-15T15:45:30;11.80;99.90
22925;DHT22;11628;51.072;3.712;2022-11-15T15:47:57;11.80;99.90
22925;DHT22;11628;51.072;3.712;2022-11-15T15:50:29;11.80;99.90
22925;DHT22;11628;51.072;3.712;2022-11-15T15:53:00;11.80;99.90
22925;DHT22;11628;51.072;3.712;2022-11-15T15:55:26;11.80;99.90
22925;DHT22;11628;51.072;3.712;2022-11-15T15:57:52;11.80;99.90
22925;DHT22;11628;51.072;3.712;2022-11-15T16:00:19;11.80;99.90
22925;DHT22;11628;51.072;3.712;2022-11-15T16:02:45;11.80;99.90
22925;DHT22;11628;51.072;3.712;2022-11-15T16:05:11;11.80;99.90
22925;DHT22;11628;51.072;3.712;2022-11-15T16:07:38;11.90;99.90
22925;DHT22;11628;51.072;3.712;2022-11-15T16:12:42;11.80;99.90
22925;DHT22;11628;51.072;3.712;2022-11-15T16:15:08;11.90;99.90
22925;DHT22;11628;51.072;3.712;2022-11-15T16:17:39;11.90;99.90
22925;DHT22;11628;51.072;3.712;2022-11-15T16:20:06;11.90;99.90
22925;DHT22;11628;51.072;3.712;2022-11-15T16:22:32;11.90;99.90
22925;DHT22;11628;51.072;3.712;2022-11-15T16:24:58;11.90;99.90
22925;DHT22;11628;51.072;3.712;2022-11-15T16:27:24;11.90;99.90
22925;DHT22;11628;51.072;3.712;2022-11-15T16:29:50;11.90;99.90
22925;DHT22;11628;51.072;3.712;2022-11-15T16:32:15;11.90;99.90
22925;DHT22;11628;51.072;3.712;2022-11-15T16:34:41;11.90;99.90
22925;DHT22;11628;51.072;3.712;2022-11-15T16:37:21;11.90;99.90
22925;DHT22;11628;51.072;3.712;2022-11-15T16:39:47;11.90;99.90
22925;DHT22;11628;51.072;3.712;2022-11-15T16:42:13;11.90;99.90
22925;DHT22;11628;51.072;3.712;2022-11-15T16:44:39;11.90;99.90
22925;DHT22;11628;51.072;3.712;2022-11-15T16:47:04;11.90;99.90
22925;DHT22;11628;51.072;3.712;2022-11-15T16:49:30;12.00;99.90
22925;DHT22;11628;51.072;3.712;2022-11-15T16:51:56;12.00;99.90
22925;DHT22;11628;51.072;3.712;2022-11-15T16:54:21;12.00;99.90
22925;DHT22;11628;51.072;3.712;2022-11-15T16:56:47;11.90;99.90
22925;DHT22;11628;51.072;3.712;2022-11-15T16:59:15;11.90;99.90
22925;DHT22;11628;51.072;3.712;2022-11-15T17:01:42;11.90;99.90
22925;DHT22;11628;51.072;3.712;2022-11-15T17:04:15;11.90;99.90
22925;DHT22;11628;51.072;3.712;2022-11-15T17:06:45;12.00;99.90
22925;DHT22;11628;51.072;3.712;2022-11-15T17:09:20;11.90;99.90
22925;DHT22;11628;51.072;3.712;2022-11-15T17:11:50;11.90;99.90
22925;DHT22;11628;51.072;3.712;2022-11-15T17:14:17;12.00;99.90
22925;DHT22;11628;51.072;3.712;2022-11-15T17:16:43;12.00;99.90
22925;DHT22;11628;51.072;3.712;2022-11-15T17:19:16;11.90;99.90
22925;DHT22;11628;51.072;3.712;2022-11-15T17:21:43;11.90;99.90
22925;DHT22;11628;51.072;3.712;2022-11-15T17:24:09;11.90;99.90
22925;DHT22;11628;51.072;3.712;2022-11-15T17:26:35;11.90;99.90
22925;DHT22;11628;51.072;3.712;2022-11-15T17:29:02;11.90;99.90
22925;DHT22;11628;51.072;3.712;2022-11-15T17:31:29;11.90;99.90
22925;DHT22;11628;51.072;3.712;2022-11-15T17:33:59;12.00;99.90
22925;DHT22;11628;51.072;3.712;2022-11-15T17:36:25;12.00;99.90
22925;DHT22;11628;51.072;3.712;2022-11-15T17:38:51;12.00;99.90
22925;DHT22;11628;51.072;3.712;2022-11-15T17:41:17;12.10;99.90
22925;DHT22;11628;51.072;3.712;2022-11-15T17:43:44;12.10;99.90
22925;DHT22;11628;51.072;3.712;2022-11-15T17:46:18;12.00;99.90
22925;DHT22;11628;51.072;3.712;2022-11-15T17:48:44;12.00;99.90
22925;DHT22;11628;51.072;3.712;2022-11-15T17:51:13;12.00;99.90